Time;durP1;ratioP1;P1;durP2;ratioP2;P2;SDS_P1;SDS_P2;PMS_P1;PMS_P2;Temp;Humidity;BMP_temperature;BMP_pressure;BME280_temperature;BME280_humidity;BME280_pressure;Samples;Min_cycle;Max_cycle;Signal;HPM_P1;HPM_P2
2022/06/24 00:01:35;;;;;;;;;;;22.30;99.90;;;;;;5032953;28;19947;-71
2022/06/24 00:04:01;;;;;;;;;;;22.20;99.90;;;;;;5033016;28;19929;-70
2022/06/24 00:06:30;;;;;;;;;;;22.00;99.90;;;;;;5032710;28;19925;-69
2022/06/24 00:08:58;;;;;;;;;;;22.00;99.90;;;;;;5032677;28;19925;-68
2022/06/24 00:11:25;;;;;;;;;;;22.10;99.90;;;;;;5032963;28;20332;-68
2022/06/24 00:14:02;;;;;;;;;;;22.00;99.90;;;;;;5033019;28;19925;-69
2022/06/24 00:16:29;;;;;;;;;;;22.00;99.90;;;;;;5032746;28;19979;-68
2022/06/24 00:19:09;;;;;;;;;;;22.00;99.90;;;;;;5032863;28;19925;-69
2022/06/24 00:21:35;;;;;;;;;;;21.90;99.90;;;;;;5032751;28;20380;-68
2022/06/24 00:24:02;;;;;;;;;;;21.90;99.90;;;;;;5032435;28;19925;-68
2022/06/24 00:26:37;;;;;;;;;;;21.90;99.90;;;;;;5032427;28;19948;-69
2022/06/24 00:29:05;;;;;;;;;;;21.80;99.90;;;;;;5032644;28;19935;-68
2022/06/24 00:31:32;;;;;;;;;;;21.80;99.90;;;;;;5032623;28;19996;-69
2022/06/24 00:33:59;;;;;;;;;;;21.80;99.90;;;;;;5032474;28;19925;-69
2022/06/24 00:36:26;;;;;;;;;;;21.70;99.90;;;;;;5032413;28;19929;-69
2022/06/24 00:38:53;;;;;;;;;;;21.80;99.90;;;;;;5032576;28;20339;-69
2022/06/24 00:41:24;;;;;;;;;;;21.60;99.90;;;;;;5032407;28;19971;-69
2022/06/24 00:43:54;;;;;;;;;;;21.60;99.90;;;;;;5032375;28;20423;-68
2022/06/24 00:46:27;;;;;;;;;;;21.60;99.90;;;;;;5032341;28;19934;-68
2022/06/24 00:48:54;;;;;;;;;;;21.60;99.90;;;;;;5032351;28;19987;-68
2022/06/24 00:51:22;;;;;;;;;;;21.70;99.90;;;;;;5032303;28;19971;-69
2022/06/24 00:53:50;;;;;;;;;;;21.70;99.90;;;;;;5032185;28;20358;-68
2022/06/24 00:56:18;;;;;;;;;;;21.70;99.90;;;;;;5031948;28;20388;-68
2022/06/24 00:58:50;;;;;;;;;;;21.60;99.90;;;;;;5032307;28;19972;-68
2022/06/24 01:01:17;;;;;;;;;;;21.60;99.90;;;;;;5032156;28;19933;-68
2022/06/24 01:03:45;;;;;;;;;;;21.70;99.90;;;;;;5032011;28;19933;-69
2022/06/24 01:06:12;;;;;;;;;;;21.60;99.90;;;;;;5031737;28;19925;-69
2022/06/24 01:08:39;;;;;;;;;;;21.40;99.90;;;;;;5032023;28;19932;-69
2022/06/24 01:11:06;;;;;;;;;;;21.40;99.90;;;;;;5032040;28;19925;-69
2022/06/24 01:13:33;;;;;;;;;;;21.60;99.90;;;;;;5031899;28;19925;-68
2022/06/24 01:16:00;;;;;;;;;;;21.50;99.90;;;;;;5031729;28;19932;-69
2022/06/24 01:18:27;;;;;;;;;;;21.50;99.90;;;;;;5032153;28;19979;-69
2022/06/24 01:20:55;;;;;;;;;;;21.40;99.90;;;;;;5031913;28;19925;-69
2022/06/24 01:23:26;;;;;;;;;;;21.40;99.90;;;;;;5031812;28;19925;-68
2022/06/24 01:25:53;;;;;;;;;;;21.50;99.90;;;;;;5031759;28;19929;-68
2022/06/24 01:28:20;;;;;;;;;;;21.50;99.90;;;;;;5031825;28;19931;-68
2022/06/24 01:30:47;;;;;;;;;;;21.60;99.90;;;;;;5032050;28;19925;-69
2022/06/24 01:33:13;;;;;;;;;;;21.60;99.90;;;;;;5031552;28;19995;-68
2022/06/24 01:35:40;;;;;;;;;;;21.70;99.90;;;;;;5034550;28;19925;-68
2022/06/24 01:38:07;;;;;;;;;;;21.70;99.90;;;;;;5035889;28;20300;-68
2022/06/24 01:40:35;;;;;;;;;;;21.70;99.90;;;;;;5036138;28;19932;-68
2022/06/24 01:43:02;;;;;;;;;;;21.80;99.90;;;;;;5035832;28;19934;-68
2022/06/24 01:45:29;;;;;;;;;;;21.80;99.90;;;;;;5035475;28;20016;-69
2022/06/24 01:47:56;;;;;;;;;;;21.90;99.90;;;;;;5035494;28;19932;-69
2022/06/24 01:50:23;;;;;;;;;;;21.90;99.90;;;;;;5035559;28;19971;-68
2022/06/24 01:52:50;;;;;;;;;;;22.00;99.90;;;;;;5035333;28;19925;-70
2022/06/24 01:55:16;;;;;;;;;;;22.10;99.90;;;;;;5035323;28;19929;-70
2022/06/24 01:57:45;;;;;;;;;;;22.10;99.90;;;;;;5035483;28;19932;-70
2022/06/24 02:00:12;;;;;;;;;;;22.00;99.90;;;;;;5035938;28;19926;-70
2022/06/24 02:02:39;;;;;;;;;;;21.90;99.90;;;;;;5035130;28;20380;-70
2022/06/24 02:05:06;;;;;;;;;;;21.90;99.90;;;;;;5035067;28;19979;-70
2022/06/24 02:07:33;;;;;;;;;;;21.70;99.90;;;;;;5035339;28;19972;-71
2022/06/24 02:15:30;;;;;;;;;;;21.20;99.90;;;;;;5034931;28;19932;-71
2022/06/24 02:17:56;;;;;;;;;;;21.20;99.90;;;;;;5035019;28;20389;-71
2022/06/24 02:20:23;;;;;;;;;;;21.10;99.90;;;;;;5034967;28;19979;-71
2022/06/24 02:22:50;;;;;;;;;;;21.00;99.90;;;;;;5034806;28;19929;-69
2022/06/24 02:25:17;;;;;;;;;;;21.00;99.90;;;;;;5034560;28;19925;-69
2022/06/24 02:27:46;;;;;;;;;;;21.00;99.90;;;;;;5035060;28;19971;-69
2022/06/24 02:30:13;;;;;;;;;;;20.90;99.90;;;;;;5034777;28;19925;-69
2022/06/24 02:32:39;;;;;;;;;;;20.80;99.90;;;;;;5034691;28;19925;-69
2022/06/24 02:35:06;;;;;;;;;;;20.90;99.90;;;;;;5034334;28;19925;-68
2022/06/24 02:37:33;;;;;;;;;;;20.80;99.90;;;;;;5034642;28;20297;-69
2022/06/24 02:40:45;;;;;;;;;;;20.80;99.90;;;;;;5034581;28;19925;-69
2022/06/24 02:42:53;;;;;;;;;;;20.80;99.90;;;;;;5034202;28;20465;-69
2022/06/24 02:45:20;;;;;;;;;;;20.70;99.90;;;;;;5034323;28;19925;-69
2022/06/24 02:47:47;;;;;;;;;;;20.60;99.90;;;;;;5034479;28;19971;-69
2022/06/24 02:50:14;;;;;;;;;;;20.60;99.90;;;;;;5034406;28;19929;-69
2022/06/24 02:52:40;;;;;;;;;;;20.50;99.90;;;;;;5034374;28;19929;-69
2022/06/24 02:55:08;;;;;;;;;;;20.60;99.90;;;;;;5034262;28;19925;-70
2022/06/24 02:57:34;;;;;;;;;;;20.60;99.90;;;;;;5034239;28;19971;-69
2022/06/24 03:00:03;;;;;;;;;;;20.60;99.90;;;;;;5034273;28;19971;-69
2022/06/24 03:02:30;;;;;;;;;;;20.60;99.90;;;;;;5034587;28;19929;-69
2022/06/24 03:04:56;;;;;;;;;;;20.60;99.90;;;;;;5033768;28;19925;-69
2022/06/24 03:07:23;;;;;;;;;;;20.60;99.90;;;;;;5034405;28;19929;-69
2022/06/24 03:09:50;;;;;;;;;;;20.60;99.90;;;;;;5033971;28;19925;-69
2022/06/24 03:12:17;;;;;;;;;;;20.60;99.90;;;;;;5033955;28;19971;-69
2022/06/24 03:14:44;;;;;;;;;;;20.60;99.90;;;;;;5033720;28;20386;-69
2022/06/24 03:17:12;;;;;;;;;;;20.50;99.90;;;;;;5033881;28;19933;-69
2022/06/24 03:19:39;;;;;;;;;;;20.40;99.90;;;;;;5033772;28;19932;-69
2022/06/24 03:22:05;;;;;;;;;;;20.40;99.90;;;;;;5033719;28;19929;-69
2022/06/24 03:24:32;;;;;;;;;;;20.40;99.90;;;;;;5033654;28;19925;-69
2022/06/24 03:26:59;;;;;;;;;;;20.50;99.90;;;;;;5033481;28;20348;-69
2022/06/24 03:29:26;;;;;;;;;;;20.50;99.90;;;;;;5033598;28;19978;-69
2022/06/24 03:31:53;;;;;;;;;;;20.50;99.90;;;;;;5033582;28;19980;-69
2022/06/24 03:34:21;;;;;;;;;;;20.70;99.90;;;;;;5033410;28;19933;-69
2022/06/24 03:36:48;;;;;;;;;;;20.70;99.90;;;;;;5033437;28;19979;-69
2022/06/24 03:39:15;;;;;;;;;;;20.70;99.90;;;;;;5033899;28;20320;-69
2022/06/24 03:41:41;;;;;;;;;;;20.70;99.90;;;;;;5033395;28;19925;-69
2022/06/24 03:44:08;;;;;;;;;;;20.60;99.90;;;;;;5033507;28;19925;-69
2022/06/24 03:46:35;;;;;;;;;;;20.70;99.90;;;;;;5033142;28;19925;-69
2022/06/24 03:49:02;;;;;;;;;;;20.80;99.90;;;;;;5033183;28;20599;-69
2022/06/24 03:51:30;;;;;;;;;;;20.80;99.90;;;;;;5033295;28;19925;-69
2022/06/24 03:53:57;;;;;;;;;;;20.80;99.90;;;;;;5033466;28;19929;-69
2022/06/24 03:56:24;;;;;;;;;;;20.80;99.90;;;;;;5032864;28;19929;-69
2022/06/24 03:58:51;;;;;;;;;;;20.80;99.90;;;;;;5032586;28;19940;-69
2022/06/24 04:01:17;;;;;;;;;;;20.90;99.90;;;;;;5032944;28;19929;-69
2022/06/24 04:03:44;;;;;;;;;;;20.80;99.90;;;;;;5032899;28;20381;-69
2022/06/24 04:06:11;;;;;;;;;;;20.90;99.90;;;;;;5032919;28;19925;-69
2022/06/24 04:08:39;;;;;;;;;;;21.00;99.90;;;;;;5032927;28;20344;-69
2022/06/24 04:11:10;;;;;;;;;;;21.00;99.90;;;;;;5032784;28;19925;-69
2022/06/24 04:13:37;;;;;;;;;;;21.00;99.90;;;;;;5032622;28;19968;-69
2022/06/24 04:16:03;;;;;;;;;;;20.90;99.90;;;;;;5032624;28;19979;-69
2022/06/24 04:18:30;;;;;;;;;;;21.10;99.90;;;;;;5032759;28;19936;-69
2022/06/24 04:20:57;;;;;;;;;;;21.10;99.90;;;;;;5033103;28;19979;-68
2022/06/24 04:23:24;;;;;;;;;;;21.00;99.90;;;;;;5032464;28;19929;-68
2022/06/24 04:25:53;;;;;;;;;;;21.00;99.90;;;;;;5032306;28;20407;-67
2022/06/24 04:28:20;;;;;;;;;;;20.80;99.90;;;;;;5032367;28;19925;-68
2022/06/24 04:30:47;;;;;;;;;;;20.60;99.90;;;;;;5032639;28;19968;-67
2022/06/24 04:33:13;;;;;;;;;;;20.50;99.90;;;;;;5032476;28;19929;-67
2022/06/24 04:35:41;;;;;;;;;;;20.50;99.90;;;;;;5032224;28;19929;-67
2022/06/24 04:38:07;;;;;;;;;;;20.40;99.90;;;;;;5032932;28;19925;-67
2022/06/24 04:40:34;;;;;;;;;;;20.40;99.90;;;;;;5032279;28;20048;-67
2022/06/24 04:43:02;;;;;;;;;;;20.10;99.90;;;;;;5032183;28;19991;-67
2022/06/24 04:45:30;;;;;;;;;;;19.90;99.90;;;;;;5032013;28;19932;-67
2022/06/24 04:47:57;;;;;;;;;;;20.00;99.90;;;;;;5032135;28;19971;-67
2022/06/24 04:50:24;;;;;;;;;;;19.80;99.90;;;;;;5032027;28;19933;-67
2022/06/24 04:52:50;;;;;;;;;;;19.70;99.90;;;;;;5031918;28;19983;-67
2022/06/24 04:55:17;;;;;;;;;;;19.60;99.90;;;;;;5031525;28;19979;-67
2022/06/24 04:57:44;;;;;;;;;;;19.60;99.90;;;;;;5031786;28;19933;-67
2022/06/24 05:00:13;;;;;;;;;;;19.50;99.90;;;;;;5031840;28;20227;-67
2022/06/24 05:02:41;;;;;;;;;;;19.50;99.90;;;;;;5031997;28;19929;-67
2022/06/24 05:05:08;;;;;;;;;;;19.50;99.90;;;;;;5032174;28;20568;-67
2022/06/24 05:07:35;;;;;;;;;;;19.30;99.90;;;;;;5032070;28;20386;-69
2022/06/24 05:10:02;;;;;;;;;;;19.10;99.90;;;;;;5030956;28;19925;-69
2022/06/24 05:12:28;;;;;;;;;;;19.00;99.90;;;;;;5031802;28;19929;-68
2022/06/24 05:14:55;;;;;;;;;;;18.80;99.90;;;;;;5031599;28;20366;-69
2022/06/24 05:17:24;;;;;;;;;;;18.80;99.90;;;;;;5031894;28;19929;-69
2022/06/24 05:19:50;;;;;;;;;;;18.70;99.90;;;;;;5031877;28;19952;-66
2022/06/24 05:22:17;;;;;;;;;;;18.50;99.90;;;;;;5031776;28;19925;-67
2022/06/24 05:24:44;;;;;;;;;;;18.40;99.90;;;;;;5031515;28;19975;-68
2022/06/24 05:27:11;;;;;;;;;;;18.30;99.90;;;;;;5031788;28;19936;-67
2022/06/24 05:29:38;;;;;;;;;;;18.20;99.90;;;;;;5031656;28;20269;-69
2022/06/24 05:32:05;;;;;;;;;;;18.10;99.90;;;;;;5031628;28;20348;-66
2022/06/24 05:34:33;;;;;;;;;;;18.20;99.90;;;;;;5031684;28;19925;-66
2022/06/24 05:37:00;;;;;;;;;;;18.20;99.90;;;;;;5031604;28;20297;-66
2022/06/24 05:39:27;;;;;;;;;;;18.20;99.90;;;;;;5031636;28;19943;-66
2022/06/24 05:41:54;;;;;;;;;;;18.20;99.90;;;;;;5031572;28;19925;-66
2022/06/24 05:44:21;;;;;;;;;;;18.10;99.90;;;;;;5031501;28;19929;-68
2022/06/24 05:46:48;;;;;;;;;;;18.10;99.90;;;;;;5031377;28;19971;-67
2022/06/24 05:49:15;;;;;;;;;;;18.30;99.90;;;;;;5031660;28;19932;-66
2022/06/24 05:51:43;;;;;;;;;;;18.20;99.90;;;;;;5031094;28;20377;-66
2022/06/24 05:56:54;;;;;;;;;;;18.60;99.90;;;;;;5031317;28;19944;-67
2022/06/24 05:59:20;;;;;;;;;;;18.60;99.90;;;;;;5031524;28;20007;-65
2022/06/24 06:01:49;;;;;;;;;;;18.40;99.90;;;;;;5031347;28;19929;-67
2022/06/24 06:04:16;;;;;;;;;;;18.30;99.90;;;;;;5031205;28;19952;-67
2022/06/24 06:06:44;;;;;;;;;;;18.20;99.90;;;;;;5031129;28;19979;-66
2022/06/24 06:09:11;;;;;;;;;;;18.10;99.90;;;;;;5031207;28;19929;-66
2022/06/24 06:11:37;;;;;;;;;;;18.10;99.90;;;;;;5031090;28;20008;-64
2022/06/24 06:14:04;;;;;;;;;;;18.30;99.90;;;;;;5031216;28;19929;-63
2022/06/24 06:16:31;;;;;;;;;;;18.60;99.90;;;;;;5031081;28;19987;-64
2022/06/24 06:18:58;;;;;;;;;;;18.30;99.90;;;;;;5031178;28;19932;-64
2022/06/24 06:21:25;;;;;;;;;;;18.30;99.90;;;;;;5033542;28;19925;-66
2022/06/24 06:23:53;;;;;;;;;;;18.30;99.90;;;;;;5034723;28;19979;-66
2022/06/24 06:26:20;;;;;;;;;;;18.30;99.90;;;;;;5034442;28;19979;-65
2022/06/24 06:28:46;;;;;;;;;;;18.50;99.90;;;;;;5034930;28;19925;-64
2022/06/24 06:31:13;;;;;;;;;;;18.50;99.90;;;;;;5034793;28;20374;-65
2022/06/24 06:33:40;;;;;;;;;;;18.40;99.90;;;;;;5034606;28;20403;-66
2022/06/24 06:36:07;;;;;;;;;;;18.60;99.90;;;;;;5034406;28;20376;-66
2022/06/24 06:38:34;;;;;;;;;;;18.60;99.90;;;;;;5035022;28;19925;-66
2022/06/24 06:41:03;;;;;;;;;;;18.70;99.90;;;;;;5034350;28;19925;-66
2022/06/24 06:43:30;;;;;;;;;;;18.60;99.90;;;;;;5034472;28;19929;-67
2022/06/24 06:45:57;;;;;;;;;;;18.60;99.90;;;;;;5034217;28;19932;-66
2022/06/24 06:48:24;;;;;;;;;;;18.70;99.90;;;;;;5034745;28;19979;-67
2022/06/24 06:50:54;;;;;;;;;;;18.90;99.90;;;;;;5034320;28;19929;-67
2022/06/24 06:53:21;;;;;;;;;;;18.80;99.90;;;;;;5034081;28;19924;-67
2022/06/24 06:55:48;;;;;;;;;;;18.80;99.90;;;;;;5034028;28;19932;-67
2022/06/24 06:58:16;;;;;;;;;;;18.90;99.90;;;;;;5034230;28;20344;-68
2022/06/24 07:00:43;;;;;;;;;;;18.90;99.90;;;;;;5034226;28;19987;-67
2022/06/24 07:03:10;;;;;;;;;;;18.90;99.90;;;;;;5034029;28;20402;-67
2022/06/24 07:05:37;;;;;;;;;;;19.00;99.90;;;;;;5033798;28;19931;-67
2022/06/24 07:08:05;;;;;;;;;;;19.00;99.90;;;;;;5033847;28;19929;-65
2022/06/24 07:10:32;;;;;;;;;;;19.20;99.90;;;;;;5033780;28;19979;-66
2022/06/24 07:12:59;;;;;;;;;;;19.20;99.90;;;;;;5033922;28;20304;-66
2022/06/24 07:15:27;;;;;;;;;;;19.20;99.90;;;;;;5033447;28;19925;-65
2022/06/24 07:17:54;;;;;;;;;;;19.10;99.90;;;;;;5033920;28;19929;-67
2022/06/24 07:20:20;;;;;;;;;;;19.20;99.90;;;;;;5033897;28;19951;-68
2022/06/24 07:22:47;;;;;;;;;;;19.20;99.90;;;;;;5033961;28;20306;-67
2022/06/24 07:25:14;;;;;;;;;;;19.50;99.90;;;;;;5033817;28;19929;-67
2022/06/24 07:27:41;;;;;;;;;;;19.40;99.90;;;;;;5033770;28;19929;-67
2022/06/24 07:30:08;;;;;;;;;;;19.30;99.90;;;;;;5033728;28;19929;-67
2022/06/24 07:32:36;;;;;;;;;;;19.60;99.90;;;;;;5032817;28;20007;-67
2022/06/24 07:35:03;;;;;;;;;;;19.60;99.90;;;;;;5033033;28;20404;-67
2022/06/24 07:37:30;;;;;;;;;;;19.80;99.90;;;;;;5034033;28;20375;-70
2022/06/24 07:39:57;;;;;;;;;;;19.40;99.90;;;;;;5033504;28;19979;-70
2022/06/24 07:42:24;;;;;;;;;;;19.30;99.90;;;;;;5033451;28;20616;-70
2022/06/24 07:44:50;;;;;;;;;;;19.40;99.90;;;;;;5033063;28;19929;-67
2022/06/24 07:47:17;;;;;;;;;;;19.60;99.90;;;;;;5033358;28;19932;-68
2022/06/24 07:49:45;;;;;;;;;;;19.60;99.90;;;;;;5033043;28;20308;-70
2022/06/24 07:52:12;;;;;;;;;;;19.40;99.90;;;;;;5033100;28;19929;-69
2022/06/24 07:54:39;;;;;;;;;;;19.50;99.90;;;;;;5033091;28;19925;-70
2022/06/24 07:57:05;;;;;;;;;;;19.70;99.90;;;;;;5033126;28;20345;-67
2022/06/24 07:59:34;;;;;;;;;;;19.90;99.90;;;;;;5033201;28;19921;-65
2022/06/24 08:02:01;;;;;;;;;;;20.30;99.90;;;;;;5032942;28;19988;-65
2022/06/24 08:04:29;;;;;;;;;;;20.40;99.90;;;;;;5032693;28;19929;-65
2022/06/24 08:06:57;;;;;;;;;;;20.30;99.90;;;;;;5032950;28;20384;-68
2022/06/24 08:09:25;;;;;;;;;;;20.20;99.90;;;;;;5032846;28;19933;-68
2022/06/24 08:11:53;;;;;;;;;;;20.20;99.90;;;;;;5033040;28;20301;-68
2022/06/24 08:14:19;;;;;;;;;;;20.50;99.90;;;;;;5032799;28;19929;-68
2022/06/24 08:16:46;;;;;;;;;;;20.50;99.90;;;;;;5032436;28;20343;-70
2022/06/24 08:19:13;;;;;;;;;;;20.70;99.90;;;;;;5032645;28;19971;-70
2022/06/24 08:21:40;;;;;;;;;;;21.00;99.90;;;;;;5032737;28;19987;-69
2022/06/24 08:24:09;;;;;;;;;;;21.50;99.90;;;;;;5033035;28;20256;-68
2022/06/24 08:26:35;;;;;;;;;;;21.70;99.90;;;;;;5032279;28;19925;-69
2022/06/24 08:29:02;;;;;;;;;;;21.40;99.90;;;;;;5032828;28;19925;-69
2022/06/24 08:31:29;;;;;;;;;;;21.70;99.90;;;;;;5032378;28;19979;-69
2022/06/24 08:33:56;;;;;;;;;;;22.30;99.90;;;;;;5032278;28;20385;-69
2022/06/24 08:36:26;;;;;;;;;;;22.90;99.90;;;;;;5032262;28;20340;-70
2022/06/24 08:38:53;;;;;;;;;;;22.60;99.90;;;;;;5032290;28;20401;-70
2022/06/24 08:41:24;;;;;;;;;;;22.80;99.90;;;;;;5032240;28;19925;-70
2022/06/24 08:43:51;;;;;;;;;;;22.90;99.90;;;;;;5031985;28;20002;-70
2022/06/24 08:46:18;;;;;;;;;;;23.40;99.90;;;;;;5031963;28;19929;-68
2022/06/24 08:48:44;;;;;;;;;;;24.10;99.90;;;;;;5032272;28;20043;-69
2022/06/24 08:51:12;;;;;;;;;;;24.50;99.90;;;;;;5032077;28;19929;-69
2022/06/24 08:53:39;;;;;;;;;;;25.10;99.90;;;;;;5032131;28;19979;-70
2022/06/24 08:56:06;;;;;;;;;;;25.80;99.90;;;;;;5031818;28;19925;-69
2022/06/24 08:58:35;;;;;;;;;;;25.90;99.90;;;;;;5032034;28;20021;-69
2022/06/24 09:01:02;;;;;;;;;;;25.70;99.90;;;;;;5032235;28;20307;-70
2022/06/24 09:03:29;;;;;;;;;;;25.00;99.90;;;;;;5032003;28;19933;-70
2022/06/24 09:05:56;;;;;;;;;;;25.20;99.90;;;;;;5031957;28;19979;-70
2022/06/24 09:08:23;;;;;;;;;;;24.50;99.90;;;;;;5031875;28;19932;-70
2022/06/24 09:13:30;;;;;;;;;;;23.70;99.90;;;;;;5031311;28;19921;-70
2022/06/24 09:16:07;;;;;;;;;;;23.80;99.90;;;;;;5031466;28;20353;-70
2022/06/24 09:18:34;;;;;;;;;;;24.10;99.90;;;;;;5031961;28;19925;-70
2022/06/24 09:21:00;;;;;;;;;;;25.40;99.90;;;;;;5031829;28;19960;-70
2022/06/24 09:23:27;;;;;;;;;;;25.40;99.90;;;;;;5031656;28;19925;-70
2022/06/24 09:25:56;;;;;;;;;;;24.90;99.90;;;;;;5031627;28;19987;-70
2022/06/24 09:28:23;;;;;;;;;;;24.20;99.90;;;;;;5031813;28;19925;-70
2022/06/24 09:30:51;;;;;;;;;;;24.20;99.90;;;;;;5031549;28;19925;-70
2022/06/24 09:33:19;;;;;;;;;;;23.70;99.90;;;;;;5031620;28;19926;-70
2022/06/24 09:35:46;;;;;;;;;;;24.00;99.90;;;;;;5031328;28;19925;-70
2022/06/24 09:38:14;;;;;;;;;;;24.10;99.90;;;;;;5031589;28;20389;-70
2022/06/24 09:40:46;;;;;;;;;;;24.10;99.90;;;;;;5031784;28;19939;-72
2022/06/24 09:43:13;;;;;;;;;;;24.40;99.90;;;;;;5031505;28;19932;-71
2022/06/24 09:45:44;;;;;;;;;;;24.20;99.90;;;;;;5031248;28;19929;-71
2022/06/24 09:48:12;;;;;;;;;;;24.50;99.90;;;;;;5031508;28;19925;-69
2022/06/24 09:50:41;;;;;;;;;;;24.60;99.90;;;;;;5031381;28;20015;-69
2022/06/24 09:53:08;;;;;;;;;;;25.00;99.90;;;;;;5031197;28;19925;-68
2022/06/24 09:55:36;;;;;;;;;;;25.00;99.90;;;;;;5032431;28;19924;-67
2022/06/24 09:58:03;;;;;;;;;;;24.60;99.90;;;;;;5035337;28;19956;-67
2022/06/24 10:00:41;;;;;;;;;;;24.60;99.90;;;;;;5035642;28;19925;-69
2022/06/24 10:03:09;;;;;;;;;;;24.40;99.90;;;;;;5035023;28;20390;-67
2022/06/24 10:05:36;;;;;;;;;;;25.20;99.90;;;;;;5035001;28;19932;-67
2022/06/24 10:08:07;;;;;;;;;;;25.40;99.90;;;;;;5035285;28;20019;-69
2022/06/24 10:10:35;;;;;;;;;;;25.80;99.90;;;;;;5035227;28;20031;-69
2022/06/24 10:13:04;;;;;;;;;;;26.50;99.90;;;;;;5035000;28;19925;-69
2022/06/24 10:15:31;;;;;;;;;;;27.60;99.90;;;;;;5034569;28;20305;-69
2022/06/24 10:17:58;;;;;;;;;;;27.40;99.90;;;;;;5034835;28;19979;-67
2022/06/24 10:20:28;;;;;;;;;;;27.60;99.90;;;;;;5034735;28;19925;-68
2022/06/24 10:25:53;;;;;;;;;;;27.50;99.90;;;;;;5033787;28;20404;-68
2022/06/24 10:28:19;;;;;;;;;;;27.80;99.90;;;;;;5035107;28;19947;-68
2022/06/24 10:30:59;;;;;;;;;;;28.30;99.90;;;;;;5034779;28;19929;-68
2022/06/24 10:33:30;;;;;;;;;;;28.70;99.90;;;;;;5034612;28;19925;-68
2022/06/24 10:35:57;;;;;;;;;;;28.60;99.90;;;;;;5034469;28;19925;-68
2022/06/24 10:38:25;;;;;;;;;;;29.20;99.10;;;;;;5034494;28;19971;-68
2022/06/24 10:40:57;;;;;;;;;;;28.80;99.80;;;;;;5034604;28;19925;-68
2022/06/24 10:43:37;;;;;;;;;;;27.80;99.90;;;;;;5034561;28;20341;-68
2022/06/24 10:46:16;;;;;;;;;;;27.90;99.90;;;;;;5034437;28;20012;-69
2022/06/24 10:48:59;;;;;;;;;;;28.10;99.90;;;;;;5034686;28;19933;-69
2022/06/24 10:51:28;;;;;;;;;;;28.70;99.30;;;;;;5034164;28;19925;-69
2022/06/24 10:54:15;;;;;;;;;;;28.70;98.40;;;;;;5034051;28;20455;-69
2022/06/24 10:56:45;;;;;;;;;;;27.50;99.50;;;;;;5030659;28;19925;-70
2022/06/24 10:59:13;;;;;;;;;;;26.70;99.90;;;;;;5033957;28;19925;-70
2022/06/24 11:01:44;;;;;;;;;;;27.20;99.90;;;;;;5033884;28;19933;-69
2022/06/24 11:04:12;;;;;;;;;;;28.20;99.90;;;;;;5034027;28;19929;-69
2022/06/24 11:06:39;;;;;;;;;;;27.80;99.20;;;;;;5032829;28;19925;-69
2022/06/24 11:09:06;;;;;;;;;;;27.40;99.80;;;;;;5034066;28;19925;-67
2022/06/24 11:11:33;;;;;;;;;;;28.20;99.00;;;;;;5033912;28;19987;-68
2022/06/24 11:14:22;;;;;;;;;;;28.80;98.20;;;;;;5033835;28;19947;-68
2022/06/24 11:16:49;;;;;;;;;;;27.90;98.40;;;;;;5033375;28;20443;-68
2022/06/24 11:19:16;;;;;;;;;;;27.70;99.00;;;;;;5033966;28;19925;-68
2022/06/24 11:21:46;;;;;;;;;;;28.70;98.70;;;;;;5033862;28;20231;-68
2022/06/24 11:24:14;;;;;;;;;;;30.00;97.80;;;;;;5033655;28;20033;-68
2022/06/24 11:26:41;;;;;;;;;;;29.00;97.40;;;;;;5033539;28;19925;-68
2022/06/24 11:29:09;;;;;;;;;;;28.50;97.90;;;;;;5033597;28;19928;-70
2022/06/24 11:31:37;;;;;;;;;;;29.30;96.50;;;;;;5033543;28;19926;-68
2022/06/24 11:34:10;;;;;;;;;;;29.90;95.70;;;;;;5033676;28;19929;-68
2022/06/24 11:36:38;;;;;;;;;;;29.00;96.10;;;;;;5033179;28;20019;-68
2022/06/24 11:39:06;;;;;;;;;;;29.70;96.20;;;;;;5033462;28;20332;-68
2022/06/24 11:41:33;;;;;;;;;;;29.40;96.60;;;;;;5033435;28;19925;-68
2022/06/24 11:44:00;;;;;;;;;;;30.40;96.50;;;;;;5033296;28;19924;-68
2022/06/24 11:46:29;;;;;;;;;;;30.70;94.80;;;;;;5033179;28;19932;-68
2022/06/24 11:49:03;;;;;;;;;;;28.40;97.30;;;;;;5033411;28;19988;-68
2022/06/24 11:51:30;;;;;;;;;;;28.10;96.30;;;;;;5033027;28;19933;-69
2022/06/24 11:53:58;;;;;;;;;;;28.40;96.20;;;;;;5033274;28;20245;-68
2022/06/24 11:56:27;;;;;;;;;;;27.80;95.70;;;;;;5033075;28;19925;-68
2022/06/24 11:58:54;;;;;;;;;;;28.30;95.50;;;;;;5033141;28;19983;-68
2022/06/24 12:01:21;;;;;;;;;;;29.40;94.50;;;;;;5033167;28;19932;-68
2022/06/24 12:03:50;;;;;;;;;;;29.90;94.20;;;;;;5032904;28;19964;-68
2022/06/24 12:06:17;;;;;;;;;;;29.30;94.50;;;;;;5033016;28;20308;-68
2022/06/24 12:08:44;;;;;;;;;;;28.60;94.70;;;;;;5033007;28;19925;-68
2022/06/24 12:11:15;;;;;;;;;;;28.10;95.40;;;;;;5032980;28;19925;-68
2022/06/24 12:14:12;;;;;;;;;;;28.00;94.90;;;;;;5032462;28;19987;-68
2022/06/24 12:19:55;;;;;;;;;;;28.60;95.40;;;;;;5031793;28;19925;-68
2022/06/24 12:22:24;;;;;;;;;;;29.20;94.90;;;;;;5032910;28;19925;-68
2022/06/24 12:25:00;;;;;;;;;;;29.20;94.10;;;;;;5032637;28;19925;-68
2022/06/24 12:27:33;;;;;;;;;;;30.10;94.90;;;;;;5032864;28;20040;-68
2022/06/24 12:30:00;;;;;;;;;;;31.70;92.50;;;;;;5033042;28;19932;-68
2022/06/24 12:32:27;;;;;;;;;;;30.50;93.10;;;;;;5032477;28;19925;-68
2022/06/24 12:34:55;;;;;;;;;;;28.90;93.90;;;;;;5032156;28;19968;-69
2022/06/24 12:37:21;;;;;;;;;;;29.10;94.20;;;;;;5032775;28;19987;-69
2022/06/24 12:39:53;;;;;;;;;;;29.30;93.50;;;;;;5032378;28;19925;-68
2022/06/24 12:42:23;;;;;;;;;;;28.90;95.20;;;;;;5032714;28;19953;-69
2022/06/24 12:44:52;;;;;;;;;;;28.50;95.20;;;;;;5032735;28;20436;-68
2022/06/24 12:52:50;;;;;;;;;;;29.90;93.60;;;;;;5032219;28;19932;-68
2022/06/24 12:55:22;;;;;;;;;;;30.90;93.00;;;;;;5032069;28;20016;-68
2022/06/24 12:57:49;;;;;;;;;;;29.80;92.90;;;;;;5032479;28;19972;-68
2022/06/24 13:00:16;;;;;;;;;;;29.70;93.10;;;;;;5032235;28;19959;-69
2022/06/24 13:02:45;;;;;;;;;;;29.60;93.80;;;;;;5032215;28;19925;-68
2022/06/24 13:05:12;;;;;;;;;;;29.60;94.40;;;;;;5032068;28;19925;-68
2022/06/24 13:07:39;;;;;;;;;;;30.20;93.60;;;;;;5032065;28;20448;-69
2022/06/24 13:10:07;;;;;;;;;;;30.00;92.70;;;;;;5032325;28;20389;-68
2022/06/24 13:12:35;;;;;;;;;;;32.20;91.40;;;;;;5031761;28;19925;-68
2022/06/24 13:15:03;;;;;;;;;;;30.60;92.20;;;;;;5032054;28;20004;-69
2022/06/24 13:17:30;;;;;;;;;;;31.10;91.50;;;;;;5031910;28;19926;-69
2022/06/24 13:19:57;;;;;;;;;;;29.80;92.60;;;;;;5031970;28;20439;-69
2022/06/24 13:22:24;;;;;;;;;;;29.10;93.50;;;;;;5031689;28;19983;-69
2022/06/24 13:24:51;;;;;;;;;;;28.80;94.20;;;;;;5031731;28;19932;-68
2022/06/24 13:27:18;;;;;;;;;;;28.90;94.50;;;;;;5031567;28;19971;-69
2022/06/24 13:29:46;;;;;;;;;;;28.60;94.10;;;;;;5031734;28;20004;-69
2022/06/24 13:32:14;;;;;;;;;;;28.20;94.70;;;;;;5035567;28;20293;-68
2022/06/24 13:34:41;;;;;;;;;;;29.30;94.30;;;;;;5035684;28;19925;-68
2022/06/24 13:37:08;;;;;;;;;;;29.50;93.50;;;;;;5035874;28;19925;-69
2022/06/24 13:39:35;;;;;;;;;;;29.90;92.80;;;;;;5035630;28;19925;-68
2022/06/24 13:42:03;;;;;;;;;;;30.40;91.90;;;;;;5035379;28;19925;-68
2022/06/24 13:44:29;;;;;;;;;;;30.70;91.40;;;;;;5035635;28;19925;-68
2022/06/24 13:46:58;;;;;;;;;;;31.10;91.60;;;;;;5035507;28;19926;-69
2022/06/24 13:49:25;;;;;;;;;;;30.40;91.50;;;;;;5035510;28;20336;-68
2022/06/24 13:51:51;;;;;;;;;;;30.90;91.80;;;;;;5035343;28;19932;-68
2022/06/24 13:54:18;;;;;;;;;;;31.40;90.60;;;;;;5035444;28;19925;-68
2022/06/24 13:56:45;;;;;;;;;;;31.40;90.20;;;;;;5035206;28;19925;-69
2022/06/24 13:59:14;;;;;;;;;;;32.30;90.40;;;;;;5035410;28;19972;-69
2022/06/24 14:01:41;;;;;;;;;;;31.70;90.80;;;;;;5035465;28;19976;-69
2022/06/24 14:04:10;;;;;;;;;;;32.30;90.30;;;;;;5035238;28;19926;-69
2022/06/24 14:06:36;;;;;;;;;;;32.10;90.60;;;;;;5035133;28;19925;-69
2022/06/24 14:09:04;;;;;;;;;;;32.20;89.20;;;;;;5035169;28;20477;-69
2022/06/24 14:11:30;;;;;;;;;;;32.10;89.00;;;;;;5035061;28;20099;-69
2022/06/24 14:13:57;;;;;;;;;;;30.40;90.80;;;;;;5035045;28;19925;-69
2022/06/24 14:16:24;;;;;;;;;;;31.00;90.70;;;;;;5034715;28;20095;-69
2022/06/24 14:18:51;;;;;;;;;;;31.50;90.30;;;;;;5035000;28;19929;-69
2022/06/24 14:21:20;;;;;;;;;;;31.70;90.20;;;;;;5035010;28;19926;-69
2022/06/24 14:26:39;;;;;;;;;;;32.30;87.10;;;;;;4998747;28;20351;-69
2022/06/24 14:29:06;;;;;;;;;;;32.60;87.40;;;;;;5034754;28;19933;-69
2022/06/24 14:31:34;;;;;;;;;;;33.30;85.60;;;;;;5034861;28;20444;-68
2022/06/24 14:34:00;;;;;;;;;;;32.90;86.30;;;;;;5034889;28;19932;-69
2022/06/24 14:36:29;;;;;;;;;;;31.30;88.40;;;;;;5034478;28;19925;-71
2022/06/24 14:41:40;;;;;;;;;;;31.30;89.00;;;;;;5034162;28;19928;-70
2022/06/24 14:44:06;;;;;;;;;;;30.70;88.40;;;;;;5034569;28;19932;-70
2022/06/24 14:46:33;;;;;;;;;;;31.70;87.80;;;;;;5034244;28;19932;-70
2022/06/24 14:49:00;;;;;;;;;;;31.60;88.20;;;;;;5034442;28;19979;-71